Weather at Adnan Menderes International Airport

Public forecast

Using degrees Celsius for public forecast. Weather courtesy of forecast.io.

Current aviation weather report (METAR) for Adnan Menderes International Airport

Retrieved 2022/01/16 18:50 UTC (32 minutes ago):

LTBJ 161850Z 34005KT CAVOK 03/M05 Q1025 NOSIG RMK RWY16 01010KT

Aviation forecast (TAF) for Adnan Menderes International Airport

Retrieved 2022/01/16 18:03 UTC (1 hour ago):

TAF LTBJ 161640Z 1618/1718 36013KT CAVOK BECMG 1620/1623 VRB02KT BECMG 1713/1716 SCT030 BKN100